Tapolca, Hungary
Current Conditions -  °F | °C
As of 5:45 PM on Wednesday 22 Oct 2014 (Local Time) from LHSM Reporting Station
Broken Clouds Broken Clouds  
Wind Chill: 50°   Ceiling: 4000
Heat Index: 50°   Visibility: 6mi
Dew Point: 41°   Wind: 10mph
Humidity: 71%   Direction: 310°NW
Pressure: 29.74"   Gusts: NA
Location:  46.89°N, 17.44°E
Report Text: LHSM 221545Z 31009KT 9999 FEW016 SCT026 BKN040 10/05 Q1007 RESHRA NOSIG
Loading
Personal Weather Stations






























Interactive Weather Map
Tropical Storm Tracking
New forecast layout! Learn more

10-Day Weather Forecast

Advertisements
Track Severe Weather on mobile